Latest Weather Observations for Warburto Point

IDS60801

Issued at 5:01 am CST Wednesday 1 July 2015 (issued every 30 minutes, with the page automatically refreshed every 10 minutes)

About weather observations | Map of weather stations | Latest weather observations for SA | Other Formats
Station Details ID: 022053 Name: WARBURTO POINT Lat: -34.00 Lon: 137.53 Height: 1.0 m
Data from the previous 72 hours. | See also: Recent months for locations in South Australia
Date/Time
CST
Temp
°C
App
Temp
°C
Dew
Point
Rel
Hum
%
Delta-T
°C
Wind Press
QNH
hPa
Press
MSL
hPa
Rain
since 9 am
mm
Dir
 
Spd
km/h
Gust
km/h
Spd
kts
Gust
kts
01/05:00am - - - - - ENE 15 15 8 8 - - -
01/04:30am - - - - - ENE 15 15 8 8 - - -
01/04:00am - - - - - NE 15 17 8 9 - - -
01/03:30am - - - - - NE 15 17 8 9 - - -
01/03:00am - - - - - NNE 13 15 7 8 - - -
01/02:30am - - - - - NNE 17 19 9 10 - - -
01/02:00am - - - - - ENE 13 15 7 8 - - -
01/01:30am - - - - - NE 15 17 8 9 - - -
01/01:00am - - - - - ESE 11 13 6 7 - - -
01/12:30am - - - - - ESE 7 9 4 5 - - -
01/12:00am - - - - - ENE 9 11 5 6 - - -
 
Date/Time
CST
Temp
°C
App
Temp
°C
Dew
Point
Rel
Hum
%
Delta-T
°C
Wind Press
QNH
hPa
Press
MSL
hPa
Rain
since 9 am
mm
Dir
 
Spd
km/h
Gust
km/h
Spd
kts
Gust
kts
30/11:30pm - - - - - E 11 13 6 7 - - -
30/11:00pm - - - - - ESE 11 15 6 8 - - -
30/10:30pm - - - - - SSE 11 15 6 8 - - -
30/10:00pm - - - - - E 15 17 8 9 - - -
30/09:30pm - - - - - ESE 13 17 7 9 - - -
30/09:00pm - - - - - SE 9 13 5 7 - - -
30/08:30pm - - - - - SE 11 13 6 7 - - -
30/08:00pm - - - - - ESE 11 13 6 7 - - -
30/07:30pm - - - - - SE 11 11 6 6 - - -
30/07:00pm - - - - - SE 13 15 7 8 - - -
30/06:30pm - - - - - S 17 20 9 11 - - -
30/06:00pm - - - - - SSW 19 22 10 12 - - -
30/05:30pm - - - - - SSW 17 22 9 12 - - -
30/05:00pm - - - - - SSW 17 22 9 12 - - -
30/04:30pm - - - - - SW 19 24 10 13 - - -
30/04:00pm - - - - - SW 19 24 10 13 - - -
30/03:30pm - - - - - SW 19 24 10 13 - - -
30/03:00pm - - - - - SW 19 22 10 12 - - -
30/02:30pm - - - - - SW 11 15 6 8 - - -
30/02:00pm - - - - - W 11 15 6 8 - - -
30/01:30pm - - - - - W 15 17 8 9 - - -
30/01:00pm - - - - - W 13 17 7 9 - - -
30/12:30pm - - - - - WNW 13 15 7 8 - - -
30/12:00pm - - - - - WNW 11 13 6 7 - - -
30/11:30am - - - - - NNW 11 13 6 7 - - -
30/11:00am - - - - - NNW 7 9 4 5 - - -
30/10:30am - - - - - NNE 7 9 4 5 - - -
30/10:00am - - - - - NNE 7 9 4 5 - - -
30/09:30am - - - - - ENE 7 9 4 5 - - -
30/09:00am - - - - - E 7 9 4 5 - - -
30/08:30am - - - - - E 9 13 5 7 - - -
30/08:00am - - - - - E 13 15 7 8 - - -
30/07:30am - - - - - ESE 15 15 8 8 - - -
30/07:00am - - - - - E 17 19 9 10 - - -
30/06:30am - - - - - ESE 11 13 6 7 - - -
30/06:00am - - - - - E 17 19 9 10 - - -
30/05:30am - - - - - E 17 20 9 11 - - -
30/05:00am - - - - - E 15 17 8 9 - - -
30/04:30am - - - - - E 15 17 8 9 - - -
30/04:00am - - - - - E 19 20 10 11 - - -
30/03:30am - - - - - E 17 19 9 10 - - -
30/03:00am - - - - - E 19 20 10 11 - - -
30/02:30am - - - - - E 19 20 10 11 - - -
30/02:00am - - - - - E 17 19 9 10 - - -
30/01:30am - - - - - E 19 20 10 11 - - -
30/01:00am - - - - - E 15 17 8 9 - - -
30/12:30am - - - - - E 17 19 9 10 - - -
30/12:00am - - - - - E 17 19 9 10 - - -
 
Date/Time
CST
Temp
°C
App
Temp
°C
Dew
Point
Rel
Hum
%
Delta-T
°C
Wind Press
QNH
hPa
Press
MSL
hPa
Rain
since 9 am
mm
Dir
 
Spd
km/h
Gust
km/h
Spd
kts
Gust
kts
29/11:30pm - - - - - E 19 22 10 12 - - -
29/11:00pm - - - - - E 19 20 10 11 - - -
29/10:30pm - - - - - E 19 20 10 11 - - -
29/10:00pm - - - - - E 19 24 10 13 - - -
29/09:30pm - - - - - E 20 24 11 13 - - -
29/09:00pm - - - - - ESE 19 24 10 13 - - -
29/08:30pm - - - - - ESE 17 19 9 10 - - -
29/08:00pm - - - - - ESE 15 17 8 9 - - -
29/07:30pm - - - - - ESE 15 17 8 9 - - -
29/07:00pm - - - - - S 11 13 6 7 - - -
29/06:30pm - - - - - SSW 13 13 7 7 - - -
29/06:00pm - - - - - SW 11 13 6 7 - - -
29/05:30pm - - - - - SW 11 11 6 6 - - -
29/05:00pm - - - - - WNW 7 9 4 5 - - -
29/04:30pm - - - - - W 9 11 5 6 - - -
29/04:00pm - - - - - WNW 9 11 5 6 - - -
29/03:30pm - - - - - WNW 11 13 6 7 - - -
29/03:00pm - - - - - NW 11 13 6 7 - - -
29/02:30pm - - - - - NNW 13 15 7 8 - - -
29/02:00pm - - - - - NNW 13 17 7 9 - - -
29/01:30pm - - - - - N 15 17 8 9 - - -
29/01:00pm - - - - - N 15 19 8 10 - - -
29/12:30pm - - - - - N 15 19 8 10 - - -
29/12:00pm - - - - - NNE 17 20 9 11 - - -
29/11:30am - - - - - NNE 17 22 9 12 - - -
29/11:00am - - - - - NNE 19 26 10 14 - - -
29/10:30am - - - - - NE 19 26 10 14 - - -
29/10:00am - - - - - ENE 19 28 10 15 - - -
29/09:30am - - - - - E 15 19 8 10 - - -
29/09:00am - - - - - E 17 20 9 11 - - -
29/08:30am - - - - - E 15 19 8 10 - - -
29/08:00am - - - - - E 17 19 9 10 - - -
29/07:30am - - - - - E 19 20 10 11 - - -
29/07:00am - - - - - E 19 19 10 10 - - -
29/06:30am - - - - - E 17 19 9 10 - - -
29/06:00am - - - - - E 17 19 9 10 - - -
29/05:30am - - - - - E 19 19 10 10 - - -
29/05:00am - - - - - E 17 19 9 10 - - -
29/04:30am - - - - - E 19 20 10 11 - - -
29/04:00am - - - - - E 17 19 9 10 - - -
29/03:30am - - - - - E 19 19 10 10 - - -
29/03:00am - - - - - E 19 19 10 10 - - -
29/02:30am - - - - - E 15 15 8 8 - - -
29/02:00am - - - - - NE 15 19 8 10 - - -
29/01:30am - - - - - E 17 19 9 10 - - -
29/01:00am - - - - - ESE 13 15 7 8 - - -
29/12:30am - - - - - ESE 15 15 8 8 - - -
29/12:00am - - - - - ESE 15 17 8 9 - - -
 
Date/Time
CST
Temp
°C
App
Temp
°C
Dew
Point
Rel
Hum
%
Delta-T
°C
Wind Press
QNH
hPa
Press
MSL
hPa
Rain
since 9 am
mm
Dir
 
Spd
km/h
Gust
km/h
Spd
kts
Gust
kts
28/11:30pm - - - - - ESE 15 17 8 9 - - -
28/11:00pm - - - - - ESE 15 17 8 9 - - -
28/10:30pm - - - - - ESE 17 20 9 11 - - -
28/10:00pm - - - - - ESE 20 24 11 13 - - -
28/09:30pm - - - - - ESE 22 30 12 16 - - -
28/09:00pm - - - - - ESE 20 26 11 14 - - -
28/08:30pm - - - - - ESE 17 24 9 13 - - -
28/08:00pm - - - - - ESE 11 13 6 7 - - -
28/07:30pm - - - - - SE 13 15 7 8 - - -
28/07:00pm - - - - - SE 15 17 8 9 - - -
28/06:30pm - - - - - SE 13 17 7 9 - - -
28/06:00pm - - - - - SW 9 9 5 5 - - -
28/05:30pm - - - - - WSW 11 11 6 6 - - -
28/05:00pm - - - - - WSW 11 13 6 7 - - -
28/04:30pm - - - - - W 11 15 6 8 - - -
28/04:00pm - - - - - W 13 17 7 9 - - -
28/03:30pm - - - - - W 13 17 7 9 - - -
28/03:00pm - - - - - WNW 13 17 7 9 - - -
28/02:30pm - - - - - WNW 15 17 8 9 - - -
28/02:00pm - - - - - WNW 15 17 8 9 - - -
28/01:30pm - - - - - WNW 15 19 8 10 - - -
28/01:00pm - - - - - NW 15 19 8 10 - - -
28/12:30pm - - - - - ENE 13 19 7 10 - - -
28/12:00pm - - - - - ESE 17 28 9 15 - - -
28/11:30am - - - - - E 15 26 8 14 - - -
28/11:00am - - - - - ESE 19 26 10 14 - - -
28/10:30am - - - - - E 17 22 9 12 - - -
28/10:00am - - - - - E 13 17 7 9 - - -
28/09:30am - - - - - E 13 17 7 9 - - -
28/09:00am - - - - - E 13 15 7 8 - - -
28/08:30am - - - - - ESE 13 15 7 8 - - -
28/08:00am - - - - - ESE 13 17 7 9 - - -
28/07:30am - - - - - ESE 13 17 7 9 - - -
28/07:00am - - - - - ESE 15 17 8 9 - - -
28/06:30am - - - - - ESE 15 17 8 9 - - -
28/06:00am - - - - - ESE 15 17 8 9 - - -
28/05:30am - - - - - SE 17 19 9 10 - - -

Other Formats:

Comma delimited format used in spreadsheet applications
http://www.bom.gov.au/fwo/IDS60801/IDS60801.94666.axf

JavaScript Object Notation format (JSON) in row-major order
http://www.bom.gov.au/fwo/IDS60801/IDS60801.94666.json